createdAt,value
2017-11-01T00:00:26.246Z,1013.78
2017-11-01T00:01:06.718Z,1013.78
2017-11-01T00:01:47.214Z,1013.8
2017-11-01T00:02:27.700Z,1013.82
2017-11-01T00:03:08.186Z,1013.77
2017-11-01T00:03:48.656Z,1013.78
2017-11-01T00:04:29.136Z,1013.72
2017-11-01T00:05:09.595Z,1013.71
2017-11-01T00:05:50.051Z,1013.71
2017-11-01T00:06:30.521Z,1013.72
2017-11-01T00:07:10.982Z,1013.71
2017-11-01T00:07:51.452Z,1013.76
2017-11-01T00:09:49.091Z,1013.82
2017-11-01T00:10:29.593Z,1013.83
2017-11-01T00:11:10.055Z,1013.88
2017-11-01T00:11:50.519Z,1013.86
2017-11-01T00:12:31.005Z,1013.87
2017-11-01T00:13:11.485Z,1013.82
2017-11-01T00:13:51.984Z,1013.81
2017-11-01T00:14:32.442Z,1013.85
2017-11-01T00:15:12.919Z,1013.79
2017-11-01T00:15:53.399Z,1013.83
2017-11-01T00:16:33.918Z,1013.81
2017-11-01T00:17:14.358Z,1013.76
2017-11-01T00:17:54.826Z,1013.74
2017-11-01T00:18:35.327Z,1013.74
2017-11-01T00:19:15.793Z,1013.71
2017-11-01T00:19:56.255Z,1013.68
2017-11-01T00:20:36.748Z,1013.69
2017-11-01T00:21:17.223Z,1013.66
2017-11-01T00:21:57.688Z,1013.64
2017-11-01T00:22:38.153Z,1013.67
2017-11-01T00:23:18.600Z,1013.65
2017-11-01T00:23:59.034Z,1013.68
2017-11-01T00:24:39.506Z,1013.68
2017-11-01T00:25:19.971Z,1013.71
2017-11-01T00:26:00.416Z,1013.66
2017-11-01T00:26:40.838Z,1013.65
2017-11-01T00:28:58.642Z,1013.68
2017-11-01T00:29:39.119Z,1013.67
2017-11-01T00:30:19.608Z,1013.68
2017-11-01T00:31:00.075Z,1013.65
2017-11-01T00:31:40.583Z,1013.65
2017-11-01T00:34:08.491Z,1013.67
2017-11-01T00:34:48.981Z,1013.7
2017-11-01T00:35:29.522Z,1013.65
2017-11-01T00:36:09.915Z,1013.65
2017-11-01T00:36:50.400Z,1013.68
2017-11-01T00:37:30.856Z,1013.67
2017-11-01T00:38:11.335Z,1013.69
2017-11-01T00:38:51.814Z,1013.68
2017-11-01T00:39:32.262Z,1013.68
2017-11-01T00:40:12.689Z,1013.7
2017-11-01T00:40:53.177Z,1013.7
2017-11-01T00:41:33.620Z,1013.65
2017-11-01T00:42:14.045Z,1013.73
2017-11-01T00:42:54.490Z,1013.71
2017-11-01T00:43:34.920Z,1013.74
2017-11-01T00:44:15.383Z,1013.75
2017-11-01T00:44:55.847Z,1013.76
2017-11-01T00:45:36.303Z,1013.77
2017-11-01T00:47:28.874Z,1013.82
2017-11-01T00:48:09.351Z,1013.82
2017-11-01T00:48:49.829Z,1013.82
2017-11-01T00:49:30.330Z,1013.81
2017-11-01T00:50:10.787Z,1013.77
2017-11-01T00:50:51.261Z,1013.73
2017-11-01T00:51:31.757Z,1013.75
2017-11-01T00:52:12.215Z,1013.73
2017-11-01T00:52:52.666Z,1013.71
2017-11-01T00:53:33.197Z,1013.72
2017-11-01T00:54:13.640Z,1013.73
2017-11-01T00:54:54.117Z,1013.74
2017-11-01T00:55:34.607Z,1013.71
2017-11-01T00:56:15.108Z,1013.69
2017-11-01T00:56:55.572Z,1013.65
2017-11-01T00:57:36.046Z,1013.66
2017-11-01T00:58:16.537Z,1013.66
2017-11-01T00:58:57.009Z,1013.7
2017-11-01T00:59:37.504Z,1013.68
2017-11-01T01:00:17.973Z,1013.69
2017-11-01T01:00:58.442Z,1013.68
2017-11-01T01:01:38.943Z,1013.66
2017-11-01T01:02:19.501Z,1013.7
2017-11-01T01:02:59.989Z,1013.69
2017-11-01T01:03:40.461Z,1013.73
2017-11-01T01:04:20.957Z,1013.7
2017-11-01T01:05:01.386Z,1013.7
2017-11-01T01:05:41.846Z,1013.68
2017-11-01T01:06:22.346Z,1013.7
2017-11-01T01:07:02.845Z,1013.64
2017-11-01T01:07:43.315Z,1013.65
2017-11-01T01:08:23.768Z,1013.64
2017-11-01T01:09:04.221Z,1013.63
2017-11-01T01:09:44.652Z,1013.6
2017-11-01T01:11:37.192Z,1013.58
2017-11-01T01:12:17.682Z,1013.59
2017-11-01T01:12:58.164Z,1013.64
2017-11-01T01:13:38.658Z,1013.61
2017-11-01T01:14:19.234Z,1013.62
2017-11-01T01:14:59.652Z,1013.67
2017-11-01T01:15:40.125Z,1013.69
2017-11-01T01:16:20.590Z,1013.73
2017-11-01T01:17:01.081Z,1013.69
2017-11-01T01:17:41.528Z,1013.71
2017-11-01T01:18:21.995Z,1013.73
2017-11-01T01:20:49.916Z,1013.76
2017-11-01T01:21:30.390Z,1013.76
2017-11-01T01:22:10.847Z,1013.77
2017-11-01T01:22:51.334Z,1013.74
2017-11-01T01:23:31.798Z,1013.77
2017-11-01T01:24:12.299Z,1013.7
2017-11-01T01:24:52.772Z,1013.7
2017-11-01T01:25:33.262Z,1013.75
2017-11-01T01:26:13.724Z,1013.69
2017-11-01T01:26:54.206Z,1013.7
2017-11-01T01:27:34.699Z,1013.7
2017-11-01T01:28:15.199Z,1013.72
2017-11-01T01:28:55.668Z,1013.71
2017-11-01T01:29:36.124Z,1013.68
2017-11-01T01:30:16.614Z,1013.68
2017-11-01T01:30:57.087Z,1013.7
2017-11-01T01:31:37.584Z,1013.69
2017-11-01T01:32:18.058Z,1013.67
2017-11-01T01:32:58.541Z,1013.71
2017-11-01T01:33:39.023Z,1013.69
2017-11-01T01:34:19.515Z,1013.68
2017-11-01T01:35:00.002Z,1013.69
2017-11-01T01:35:40.482Z,1013.71
2017-11-01T01:36:20.954Z,1013.74
2017-11-01T01:37:01.458Z,1013.73
2017-11-01T01:37:41.922Z,1013.77
2017-11-01T01:38:22.377Z,1013.76
2017-11-01T01:39:02.864Z,1013.75
2017-11-01T01:39:43.295Z,1013.78
2017-11-01T01:40:23.746Z,1013.76
2017-11-01T01:42:51.653Z,1013.81
2017-11-01T01:43:32.100Z,1013.77
2017-11-01T01:44:12.582Z,1013.77
2017-11-01T01:44:53.024Z,1013.76
2017-11-01T01:45:33.447Z,1013.75
2017-11-01T01:46:13.873Z,1013.73
2017-11-01T01:46:54.341Z,1013.69
2017-11-01T01:47:34.829Z,1013.67
2017-11-01T01:48:15.295Z,1013.68
2017-11-01T01:48:55.770Z,1013.68
2017-11-01T01:49:36.228Z,1013.67
2017-11-01T01:51:28.798Z,1013.63
2017-11-01T01:53:46.558Z,1013.67
2017-11-01T01:54:27.027Z,1013.63
2017-11-01T01:55:07.489Z,1013.66
2017-11-01T01:55:47.967Z,1013.68
2017-11-01T01:56:28.466Z,1013.66
2017-11-01T01:57:08.954Z,1013.73
2017-11-01T01:57:49.448Z,1013.73
2017-11-01T01:58:29.922Z,1013.72
2017-11-01T01:59:10.434Z,1013.71
2017-11-01T01:59:50.860Z,1013.71
2017-11-01T02:02:08.698Z,1013.69
2017-11-01T02:02:49.126Z,1013.67
2017-11-01T02:03:29.604Z,1013.71
2017-11-01T02:05:22.148Z,1013.68
2017-11-01T02:06:02.662Z,1013.68
2017-11-01T02:06:43.150Z,1013.62
2017-11-01T02:07:23.627Z,1013.67
2017-11-01T02:08:04.088Z,1013.64
2017-11-01T02:08:44.593Z,1013.61
2017-11-01T02:09:25.075Z,1013.62
2017-11-01T02:10:05.554Z,1013.62
2017-11-01T02:10:46.027Z,1013.67
2017-11-01T02:11:26.497Z,1013.65
2017-11-01T02:12:06.981Z,1013.58
2017-11-01T02:12:47.423Z,1013.56
2017-11-01T02:13:27.906Z,1013.56
2017-11-01T02:14:08.429Z,1013.63
2017-11-01T02:14:48.866Z,1013.55
2017-11-01T02:15:29.334Z,1013.56
2017-11-01T02:16:09.833Z,1013.58
2017-11-01T02:16:50.334Z,1013.57
2017-11-01T02:17:30.790Z,1013.5
2017-11-01T02:18:11.288Z,1013.51
2017-11-01T02:18:51.777Z,1013.52
2017-11-01T02:19:32.266Z,1013.47
2017-11-01T02:20:12.736Z,1013.47
2017-11-01T02:20:53.224Z,1013.47
2017-11-01T02:21:33.761Z,1013.47
2017-11-01T02:22:14.250Z,1013.44
2017-11-01T02:22:54.726Z,1013.45
2017-11-01T02:23:35.210Z,1013.45
2017-11-01T02:24:15.689Z,1013.44
2017-11-01T02:24:56.178Z,1013.44
2017-11-01T02:25:37.165Z,1013.38
2017-11-01T02:26:17.152Z,1013.39
2017-11-01T02:26:57.652Z,1013.38
2017-11-01T02:27:38.125Z,1013.36
2017-11-01T02:28:18.609Z,1013.36
2017-11-01T02:28:59.054Z,1013.42
2017-11-01T02:29:39.501Z,1013.45
2017-11-01T02:30:19.961Z,1013.45
2017-11-01T02:31:00.419Z,1013.44
2017-11-01T02:31:40.876Z,1013.43
2017-11-01T02:32:21.335Z,1013.46
2017-11-01T02:33:01.761Z,1013.44
2017-11-01T02:33:42.250Z,1013.42
2017-11-01T02:34:22.699Z,1013.45
2017-11-01T02:36:15.260Z,1013.44
2017-11-01T02:36:55.745Z,1013.43
2017-11-01T02:37:36.239Z,1013.42
2017-11-01T02:38:16.701Z,1013.38
2017-11-01T02:38:57.170Z,1013.4
2017-11-01T02:39:37.653Z,1013.39
2017-11-01T02:40:18.137Z,1013.39
2017-11-01T02:40:58.641Z,1013.41
2017-11-01T02:41:39.093Z,1013.38
2017-11-01T02:42:19.569Z,1013.41
2017-11-01T02:43:00.055Z,1013.43
2017-11-01T02:43:40.535Z,1013.47
2017-11-01T02:44:21.029Z,1013.41
2017-11-01T02:45:01.507Z,1013.37
2017-11-01T02:45:41.964Z,1013.38
2017-11-01T02:46:22.473Z,1013.36
2017-11-01T02:47:02.966Z,1013.38
2017-11-01T02:47:43.446Z,1013.37
2017-11-01T02:48:23.932Z,1013.42
2017-11-01T02:49:04.440Z,1013.42
2017-11-01T02:49:44.913Z,1013.37
2017-11-01T02:50:25.405Z,1013.4
2017-11-01T02:51:05.872Z,1013.36
2017-11-01T02:51:46.345Z,1013.39
2017-11-01T02:52:26.831Z,1013.36
2017-11-01T02:53:07.309Z,1013.39
2017-11-01T02:53:47.812Z,1013.38
2017-11-01T02:54:28.329Z,1013.33
2017-11-01T02:55:08.762Z,1013.35
2017-11-01T02:55:49.246Z,1013.33
2017-11-01T02:56:29.746Z,1013.36
2017-11-01T02:57:10.210Z,1013.35
2017-11-01T02:59:02.770Z,1013.33
2017-11-01T02:59:43.257Z,1013.31
2017-11-01T03:00:23.733Z,1013.29
2017-11-01T03:01:04.203Z,1013.26
2017-11-01T03:01:44.682Z,1013.22
2017-11-01T03:02:25.162Z,1013.19
2017-11-01T03:03:05.664Z,1013.24
2017-11-01T03:03:46.135Z,1013.2
2017-11-01T03:04:26.615Z,1013.23
2017-11-01T03:05:07.098Z,1013.18
2017-11-01T03:05:47.597Z,1013.18
2017-11-01T03:06:28.092Z,1013.15
2017-11-01T03:07:08.566Z,1013.16
2017-11-01T03:07:49.020Z,1013.13
2017-11-01T03:09:41.550Z,1013.16
2017-11-01T03:10:22.020Z,1013.23
2017-11-01T03:11:02.473Z,1013.27
2017-11-01T03:11:42.982Z,1013.26
2017-11-01T03:12:23.447Z,1013.27
2017-11-01T03:13:03.942Z,1013.29
2017-11-01T03:13:44.407Z,1013.28
2017-11-01T03:14:24.886Z,1013.28
2017-11-01T03:15:05.375Z,1013.3
2017-11-01T03:15:45.869Z,1013.26
2017-11-01T03:16:26.344Z,1013.25
2017-11-01T03:17:06.848Z,1013.25
2017-11-01T03:17:47.346Z,1013.25
2017-11-01T03:18:27.823Z,1013.28
2017-11-01T03:19:08.309Z,1013.27
2017-11-01T03:19:48.770Z,1013.25
2017-11-01T03:20:29.272Z,1013.26
2017-11-01T03:21:09.783Z,1013.25
2017-11-01T03:21:50.275Z,1013.25
2017-11-01T03:22:30.743Z,1013.23
2017-11-01T03:23:11.223Z,1013.21
2017-11-01T03:23:51.699Z,1013.22
2017-11-01T03:24:32.180Z,1013.25
2017-11-01T03:25:12.690Z,1013.28
2017-11-01T03:25:53.165Z,1013.21
2017-11-01T03:26:33.653Z,1013.2
2017-11-01T03:27:14.113Z,1013.18
2017-11-01T03:27:54.540Z,1013.18
2017-11-01T03:28:34.979Z,1013.15
2017-11-01T03:29:15.439Z,1013.14
2017-11-01T03:29:55.924Z,1013.12
2017-11-01T03:30:36.383Z,1013.09
2017-11-01T03:31:16.872Z,1013.09
2017-11-01T03:31:57.339Z,1013.05
2017-11-01T03:32:37.800Z,1013.07
2017-11-01T03:33:18.268Z,1013.03
2017-11-01T03:33:58.680Z,1013.05
2017-11-01T03:34:39.161Z,1013.04
2017-11-01T03:35:19.625Z,1013.05
2017-11-01T03:36:00.125Z,1013.07
2017-11-01T03:36:40.612Z,1013.06
2017-11-01T03:37:21.096Z,1013.09
2017-11-01T03:38:01.550Z,1013.04
2017-11-01T03:38:42.010Z,1013.04
2017-11-01T03:40:34.553Z,1013.04
2017-11-01T03:41:15.044Z,1013.02
2017-11-01T03:41:55.545Z,1013.01
2017-11-01T03:42:36.058Z,1013.02
2017-11-01T03:43:16.504Z,1013.02
2017-11-01T03:43:56.983Z,1012.99
2017-11-01T03:44:37.483Z,1013.03
2017-11-01T03:45:17.946Z,1013.08
2017-11-01T03:45:58.435Z,1013.05
2017-11-01T03:46:38.906Z,1013.04
2017-11-01T03:47:19.373Z,1013.07
2017-11-01T03:47:59.871Z,1013.04
2017-11-01T03:48:40.363Z,1012.98
2017-11-01T03:49:20.844Z,1013.02
2017-11-01T03:50:01.347Z,1013.03
2017-11-01T03:50:41.851Z,1013.01
2017-11-01T03:51:22.294Z,1013.05
2017-11-01T03:52:02.817Z,1013.11
2017-11-01T03:52:43.285Z,1013.13
2017-11-01T03:53:23.763Z,1013.1
2017-11-01T03:54:04.215Z,1013.13
2017-11-01T03:54:44.701Z,1013.11
2017-11-01T03:55:25.137Z,1013.09
2017-11-01T03:56:05.571Z,1013.08
2017-11-01T03:56:46.032Z,1013.13
2017-11-01T03:57:26.478Z,1013.06
2017-11-01T03:58:06.920Z,1013.1
2017-11-01T03:58:47.356Z,1013.12
2017-11-01T03:59:27.835Z,1013.14
2017-11-01T04:00:08.319Z,1013.14
2017-11-01T04:00:48.783Z,1013.13
2017-11-01T04:01:29.224Z,1013.1
2017-11-01T04:02:09.705Z,1013.16
2017-11-01T04:02:50.188Z,1013.1
2017-11-01T04:03:30.670Z,1013.09
2017-11-01T04:04:11.139Z,1013.11
2017-11-01T04:06:28.984Z,1013.02
2017-11-01T04:07:09.396Z,1013.05
2017-11-01T04:07:49.862Z,1013.09
2017-11-01T04:08:30.315Z,1013.07
2017-11-01T04:09:10.785Z,1013.03
2017-11-01T04:11:28.592Z,1013.02
2017-11-01T04:12:09.040Z,1012.97
2017-11-01T04:12:49.540Z,1012.94
2017-11-01T04:13:30.016Z,1012.96
2017-11-01T04:14:10.579Z,1012.95
2017-11-01T04:14:51.054Z,1012.96
2017-11-01T04:15:31.506Z,1012.92
2017-11-01T04:16:12.000Z,1012.91
2017-11-01T04:16:52.428Z,1012.86
2017-11-01T04:17:32.868Z,1012.86
2017-11-01T04:18:13.314Z,1012.91
2017-11-01T04:18:53.764Z,1012.94
2017-11-01T04:19:34.200Z,1012.98
2017-11-01T04:21:51.968Z,1013
2017-11-01T04:22:32.424Z,1013.03
2017-11-01T04:23:12.925Z,1013.04
2017-11-01T04:23:53.404Z,1013.04
2017-11-01T04:24:33.927Z,1013.04
2017-11-01T04:25:14.362Z,1013.01
2017-11-01T04:25:54.853Z,1013.03
2017-11-01T04:26:35.329Z,1013.02
2017-11-01T04:27:15.791Z,1013.01
2017-11-01T04:27:56.233Z,1013.09
2017-11-01T04:28:36.709Z,1013.09
2017-11-01T04:29:17.140Z,1013.12
2017-11-01T04:31:45.065Z,1013.11
2017-11-01T04:32:25.515Z,1013.07
2017-11-01T04:33:06.007Z,1013.07
2017-11-01T04:33:46.488Z,1013.01
2017-11-01T04:34:26.972Z,1012.95
2017-11-01T04:35:07.458Z,1012.96
2017-11-01T04:35:47.946Z,1012.96
2017-11-01T04:36:28.466Z,1013.01
2017-11-01T04:37:08.919Z,1012.99
2017-11-01T04:37:49.387Z,1012.97
2017-11-01T04:38:29.844Z,1012.92
2017-11-01T04:39:10.321Z,1012.93
2017-11-01T04:39:50.768Z,1012.9
2017-11-01T04:40:31.202Z,1012.88
2017-11-01T04:41:11.649Z,1012.87
2017-11-01T04:43:09.256Z,1012.83
2017-11-01T04:43:49.721Z,1012.88
2017-11-01T04:44:30.194Z,1012.84
2017-11-01T04:45:10.643Z,1012.84
2017-11-01T04:45:51.138Z,1012.84
2017-11-01T04:46:31.542Z,1012.81
2017-11-01T04:47:11.956Z,1012.85
2017-11-01T04:47:52.413Z,1012.83
2017-11-01T04:48:32.904Z,1012.84
2017-11-01T04:50:30.510Z,1012.82
2017-11-01T04:51:11.005Z,1012.82
2017-11-01T04:51:51.462Z,1012.86
2017-11-01T04:52:31.942Z,1012.84
2017-11-01T04:53:12.441Z,1012.81
2017-11-01T04:53:52.922Z,1012.79
2017-11-01T04:54:33.431Z,1012.78
2017-11-01T04:55:13.894Z,1012.86
2017-11-01T04:55:54.382Z,1012.88
2017-11-01T04:56:34.881Z,1012.88
2017-11-01T04:57:15.379Z,1012.92
2017-11-01T04:57:55.831Z,1012.91
2017-11-01T04:58:36.295Z,1012.92
2017-11-01T04:59:16.780Z,1012.86
2017-11-01T04:59:57.222Z,1012.85
2017-11-01T05:00:37.688Z,1012.83
2017-11-01T05:01:18.128Z,1012.82
2017-11-01T05:03:46.050Z,1012.81
2017-11-01T05:04:26.727Z,1012.78
2017-11-01T05:05:07.199Z,1012.82
2017-11-01T05:05:47.729Z,1012.83
2017-11-01T05:06:28.190Z,1012.84
2017-11-01T05:07:08.666Z,1012.92
2017-11-01T05:07:49.141Z,1012.97
2017-11-01T05:08:29.549Z,1012.95
2017-11-01T05:09:09.992Z,1012.95
2017-11-01T05:09:50.441Z,1012.97
2017-11-01T05:12:18.370Z,1013.03
2017-11-01T05:12:58.829Z,1013
2017-11-01T05:13:39.306Z,1012.97
2017-11-01T05:14:19.804Z,1012.99
2017-11-01T05:15:00.279Z,1012.96
2017-11-01T05:15:40.770Z,1012.99
2017-11-01T05:16:21.264Z,1012.94
2017-11-01T05:17:01.749Z,1012.89
2017-11-01T05:17:42.231Z,1012.85
2017-11-01T05:18:22.713Z,1012.83
2017-11-01T05:19:03.184Z,1012.82
2017-11-01T05:19:43.663Z,1012.77
2017-11-01T05:20:24.110Z,1012.77
2017-11-01T05:21:04.599Z,1012.76
2017-11-01T05:21:45.042Z,1012.82
2017-11-01T05:22:25.458Z,1012.79
2017-11-01T05:24:38.196Z,1012.89
2017-11-01T05:25:18.649Z,1012.89
2017-11-01T05:25:59.135Z,1012.86
2017-11-01T05:26:39.599Z,1012.84
2017-11-01T05:27:20.083Z,1012.87
2017-11-01T05:28:00.538Z,1012.86
2017-11-01T05:28:41.012Z,1012.85
2017-11-01T05:29:21.425Z,1012.87
2017-11-01T05:30:01.859Z,1012.86
2017-11-01T05:30:42.294Z,1012.89
2017-11-01T05:31:22.796Z,1012.92
2017-11-01T05:32:03.222Z,1012.91
2017-11-01T05:32:43.678Z,1012.9
2017-11-01T05:33:24.139Z,1012.86
2017-11-01T05:34:04.572Z,1012.95
2017-11-01T05:34:44.987Z,1012.9
2017-11-01T05:35:25.481Z,1012.88
2017-11-01T05:36:05.909Z,1012.86
2017-11-01T05:36:46.402Z,1012.86
2017-11-01T05:37:26.791Z,1012.87
2017-11-01T05:41:32.032Z,1012.85
2017-11-01T05:42:12.499Z,1012.79
2017-11-01T05:42:53.002Z,1012.88
2017-11-01T05:43:33.445Z,1012.86
2017-11-01T05:44:13.929Z,1012.85
2017-11-01T05:44:54.411Z,1012.87
2017-11-01T05:45:34.891Z,1012.87
2017-11-01T05:46:15.390Z,1012.89
2017-11-01T05:46:55.860Z,1012.92
2017-11-01T05:47:36.346Z,1012.91
2017-11-01T05:48:16.841Z,1012.88
2017-11-01T05:48:57.326Z,1012.87
2017-11-01T05:49:37.805Z,1012.85
2017-11-01T05:50:18.259Z,1012.82
2017-11-01T05:50:58.738Z,1012.83
2017-11-01T05:51:39.254Z,1012.83
2017-11-01T05:52:19.720Z,1012.83
2017-11-01T05:53:00.177Z,1012.82
2017-11-01T05:53:40.667Z,1012.78
2017-11-01T05:54:21.132Z,1012.78
2017-11-01T05:55:01.595Z,1012.82
2017-11-01T05:55:42.032Z,1012.81
2017-11-01T05:56:22.497Z,1012.8
2017-11-01T05:58:35.179Z,1012.83
2017-11-01T05:59:15.724Z,1012.83
2017-11-01T05:59:56.214Z,1012.81
2017-11-01T06:00:36.709Z,1012.8
2017-11-01T06:01:17.186Z,1012.85
2017-11-01T06:01:57.662Z,1012.86
2017-11-01T06:02:38.132Z,1012.87
2017-11-01T06:03:18.643Z,1012.92
2017-11-01T06:03:59.110Z,1012.88
2017-11-01T06:04:39.606Z,1012.89
2017-11-01T06:05:20.078Z,1012.87
2017-11-01T06:06:00.553Z,1012.86
2017-11-01T06:06:40.991Z,1012.89
2017-11-01T06:07:21.446Z,1012.84
2017-11-01T06:08:01.926Z,1012.81
2017-11-01T06:08:42.348Z,1012.83
2017-11-01T06:09:22.809Z,1012.81
2017-11-01T06:10:03.277Z,1012.79
2017-11-01T06:10:43.772Z,1012.8
2017-11-01T06:11:24.255Z,1012.72
2017-11-01T06:12:04.701Z,1012.77
2017-11-01T06:12:45.190Z,1012.78
2017-11-01T06:13:25.640Z,1012.76
2017-11-01T06:14:06.109Z,1012.75
2017-11-01T06:14:46.556Z,1012.77
2017-11-01T06:15:27.016Z,1012.77
2017-11-01T06:16:07.449Z,1012.83
2017-11-01T06:16:47.905Z,1012.82
2017-11-01T06:17:28.376Z,1012.81
2017-11-01T06:18:08.795Z,1012.85
2017-11-01T06:18:49.250Z,1012.86
2017-11-01T06:19:29.731Z,1012.83
2017-11-01T06:20:10.198Z,1012.86
2017-11-01T06:22:22.907Z,1012.86
2017-11-01T06:23:03.405Z,1012.87
2017-11-01T06:23:43.878Z,1012.88
2017-11-01T06:24:24.373Z,1012.94
2017-11-01T06:25:04.856Z,1012.91
2017-11-01T06:25:45.355Z,1012.91
2017-11-01T06:26:25.832Z,1012.86
2017-11-01T06:27:06.316Z,1012.88
2017-11-01T06:27:46.782Z,1012.87
2017-11-01T06:28:27.269Z,1012.89
2017-11-01T06:29:07.748Z,1012.9
2017-11-01T06:29:48.197Z,1012.89
2017-11-01T06:30:28.650Z,1012.86
2017-11-01T06:31:09.116Z,1012.85
2017-11-01T06:33:21.787Z,1012.88
2017-11-01T06:34:02.316Z,1012.85
2017-11-01T06:34:42.768Z,1012.85
2017-11-01T06:35:23.310Z,1012.87
2017-11-01T06:36:03.881Z,1012.89
2017-11-01T06:36:44.416Z,1012.85
2017-11-01T06:37:25.007Z,1012.9
2017-11-01T06:38:05.709Z,1012.96
2017-11-01T06:38:46.175Z,1013.01
2017-11-01T06:39:26.780Z,1012.96
2017-11-01T06:40:07.368Z,1012.98
2017-11-01T06:40:47.923Z,1013.04
2017-11-01T06:41:28.461Z,1013.06
2017-11-01T06:42:09.012Z,1013.06
2017-11-01T06:42:49.587Z,1013.09
2017-11-01T06:43:30.143Z,1013.11
2017-11-01T06:44:10.711Z,1013.13
2017-11-01T06:44:51.221Z,1013.14
2017-11-01T06:45:31.745Z,1013.15
2017-11-01T06:46:12.287Z,1013.2
2017-11-01T06:46:52.896Z,1013.23
2017-11-01T06:47:33.489Z,1013.28
2017-11-01T06:48:13.991Z,1013.2
2017-11-01T06:48:54.426Z,1013.23
2017-11-01T06:49:34.889Z,1013.19
2017-11-01T06:50:15.301Z,1013.23
2017-11-01T06:50:55.755Z,1013.23
2017-11-01T06:51:36.207Z,1013.19
2017-11-01T06:52:16.642Z,1013.21
2017-11-01T06:54:09.201Z,1013.22
2017-11-01T06:54:49.664Z,1013.19
2017-11-01T06:55:30.162Z,1013.17
2017-11-01T06:56:10.633Z,1013.19
2017-11-01T06:56:51.154Z,1013.16
2017-11-01T06:57:31.610Z,1013.18
2017-11-01T06:58:12.072Z,1013.22
2017-11-01T06:58:52.498Z,1013.18
2017-11-01T06:59:32.976Z,1013.24
2017-11-01T07:00:13.406Z,1013.25
2017-11-01T07:00:53.893Z,1013.28
2017-11-01T07:01:34.332Z,1013.31
2017-11-01T07:02:14.773Z,1013.31
2017-11-01T07:02:55.243Z,1013.36
2017-11-01T07:05:23.108Z,1013.37
2017-11-01T07:06:03.586Z,1013.43
2017-11-01T07:06:44.060Z,1013.37
2017-11-01T07:07:24.489Z,1013.38
2017-11-01T07:08:04.883Z,1013.39
2017-11-01T07:08:45.353Z,1013.37
2017-11-01T07:10:58.052Z,1013.29
2017-11-01T07:11:38.511Z,1013.35
2017-11-01T07:12:19.002Z,1013.26
2017-11-01T07:12:59.463Z,1013.29
2017-11-01T07:13:39.941Z,1013.33
2017-11-01T07:14:20.379Z,1013.28
2017-11-01T07:16:38.183Z,1013.39
2017-11-01T07:17:18.645Z,1013.34
2017-11-01T07:17:59.176Z,1013.39
2017-11-01T07:18:39.588Z,1013.37
2017-11-01T07:19:20.069Z,1013.44
2017-11-01T07:20:00.548Z,1013.43
2017-11-01T07:20:41.017Z,1013.46
2017-11-01T07:21:21.493Z,1013.46
2017-11-01T07:22:01.969Z,1013.46
2017-11-01T07:22:42.442Z,1013.43
2017-11-01T07:23:22.906Z,1013.42
2017-11-01T07:24:03.392Z,1013.47
2017-11-01T07:24:43.865Z,1013.48
2017-11-01T07:25:24.346Z,1013.46
2017-11-01T07:26:04.802Z,1013.48
2017-11-01T07:26:45.291Z,1013.44
2017-11-01T07:27:25.779Z,1013.47
2017-11-01T07:28:06.264Z,1013.48
2017-11-01T07:28:46.762Z,1013.49
2017-11-01T07:29:27.259Z,1013.49
2017-11-01T07:30:07.741Z,1013.5
2017-11-01T07:30:48.230Z,1013.51
2017-11-01T07:31:28.976Z,1013.49
2017-11-01T07:32:09.388Z,1013.55
2017-11-01T07:32:49.873Z,1013.51
2017-11-01T07:35:17.984Z,1013.5
2017-11-01T07:35:58.613Z,1013.56
2017-11-01T07:36:39.076Z,1013.58
2017-11-01T07:37:19.549Z,1013.58
2017-11-01T07:38:00.027Z,1013.51
2017-11-01T07:38:40.497Z,1013.5
2017-11-01T07:39:20.980Z,1013.48
2017-11-01T07:40:01.457Z,1013.56
2017-11-01T07:40:41.942Z,1013.55
2017-11-01T07:41:22.406Z,1013.55
2017-11-01T07:42:02.871Z,1013.57
2017-11-01T07:42:43.340Z,1013.56
2017-11-01T07:43:23.830Z,1013.56
2017-11-01T07:44:04.326Z,1013.62
2017-11-01T07:44:44.803Z,1013.55
2017-11-01T07:45:25.293Z,1013.57
2017-11-01T07:46:05.773Z,1013.56
2017-11-01T07:46:46.241Z,1013.59
2017-11-01T07:47:26.730Z,1013.57
2017-11-01T07:48:07.222Z,1013.55
2017-11-01T07:48:47.673Z,1013.56
2017-11-01T07:49:28.141Z,1013.58
2017-11-01T07:50:08.629Z,1013.61
2017-11-01T07:50:49.068Z,1013.61
2017-11-01T07:51:29.515Z,1013.58
2017-11-01T07:53:47.350Z,1013.64
2017-11-01T07:54:27.792Z,1013.66
2017-11-01T07:55:08.303Z,1013.68
2017-11-01T07:55:48.748Z,1013.67
2017-11-01T07:56:29.243Z,1013.68
2017-11-01T07:57:09.720Z,1013.76
2017-11-01T07:57:50.187Z,1013.76
2017-11-01T07:58:30.672Z,1013.76
2017-11-01T07:59:11.143Z,1013.74
2017-11-01T07:59:51.644Z,1013.71
2017-11-01T08:00:32.109Z,1013.79
2017-11-01T08:01:12.611Z,1013.77
2017-11-01T08:01:53.045Z,1013.8
2017-11-01T08:04:05.773Z,1013.8
2017-11-01T08:04:46.277Z,1013.85
2017-11-01T08:05:26.761Z,1013.82
2017-11-01T08:06:07.256Z,1013.8
2017-11-01T08:06:47.734Z,1013.74
2017-11-01T08:07:28.214Z,1013.73
2017-11-01T08:08:08.700Z,1013.69
2017-11-01T08:08:49.195Z,1013.72
2017-11-01T08:09:29.680Z,1013.64
2017-11-01T08:10:10.172Z,1013.65
2017-11-01T08:10:50.670Z,1013.62
2017-11-01T08:11:31.152Z,1013.61
2017-11-01T08:12:11.625Z,1013.56
2017-11-01T08:12:52.195Z,1013.6
2017-11-01T08:13:32.607Z,1013.55
2017-11-01T08:14:13.119Z,1013.52
2017-11-01T08:14:53.579Z,1013.55
2017-11-01T08:15:34.076Z,1013.57
2017-11-01T08:16:14.539Z,1013.54
2017-11-01T08:16:54.993Z,1013.52
2017-11-01T08:17:35.453Z,1013.54
2017-11-01T08:18:15.888Z,1013.52
2017-11-01T08:18:56.291Z,1013.54
2017-11-01T08:19:36.811Z,1013.58
2017-11-01T08:20:17.312Z,1013.55
2017-11-01T08:20:57.759Z,1013.54
2017-11-01T08:21:38.223Z,1013.53
2017-11-01T08:22:18.711Z,1013.55
2017-11-01T08:22:59.150Z,1013.48
2017-11-01T08:23:39.621Z,1013.49
2017-11-01T08:24:20.069Z,1013.49
2017-11-01T08:25:00.505Z,1013.48
2017-11-01T08:25:40.955Z,1013.49
2017-11-01T08:27:58.789Z,1013.52
2017-11-01T08:28:39.277Z,1013.52
2017-11-01T08:29:19.778Z,1013.52
2017-11-01T08:30:00.231Z,1013.52
2017-11-01T08:32:18.036Z,1013.5
2017-11-01T08:32:58.531Z,1013.42
2017-11-01T08:33:38.991Z,1013.5
2017-11-01T08:34:19.492Z,1013.48
2017-11-01T08:34:59.909Z,1013.5
2017-11-01T08:35:40.374Z,1013.5
2017-11-01T08:36:20.859Z,1013.53
2017-11-01T08:37:01.364Z,1013.53
2017-11-01T08:37:41.807Z,1013.45
2017-11-01T08:39:34.397Z,1013.51
2017-11-01T08:40:14.847Z,1013.52
2017-11-01T08:40:55.320Z,1013.56
2017-11-01T08:41:35.792Z,1013.59
2017-11-01T08:43:33.389Z,1013.64
2017-11-01T08:44:13.883Z,1013.59
2017-11-01T08:44:54.419Z,1013.57
2017-11-01T08:45:34.824Z,1013.62
2017-11-01T08:46:15.312Z,1013.62
2017-11-01T08:46:55.782Z,1013.63
2017-11-01T08:47:36.255Z,1013.6
2017-11-01T08:48:16.757Z,1013.63
2017-11-01T08:48:57.237Z,1013.61
2017-11-01T08:49:37.705Z,1013.61
2017-11-01T08:50:18.160Z,1013.68
2017-11-01T08:50:58.590Z,1013.65
2017-11-01T08:51:39.022Z,1013.64
2017-11-01T08:52:19.464Z,1013.64
2017-11-01T08:52:59.898Z,1013.67
2017-11-01T08:54:52.447Z,1013.67
2017-11-01T08:55:32.910Z,1013.68
2017-11-01T08:56:13.406Z,1013.64
2017-11-01T08:56:53.952Z,1013.68
2017-11-01T08:57:34.369Z,1013.68
2017-11-01T08:58:14.849Z,1013.65
2017-11-01T08:58:56.025Z,1013.66
2017-11-01T08:59:36.514Z,1013.71
2017-11-01T09:00:16.937Z,1013.79
2017-11-01T09:00:57.467Z,1013.73
2017-11-01T09:01:37.901Z,1013.76
2017-11-01T09:02:18.368Z,1013.76
2017-11-01T09:02:58.823Z,1013.73
2017-11-01T09:05:11.530Z,1013.79
2017-11-01T09:05:52.013Z,1013.79
2017-11-01T09:06:32.513Z,1013.82
2017-11-01T09:07:12.990Z,1013.82
2017-11-01T09:07:53.455Z,1013.86
2017-11-01T09:08:33.943Z,1013.84
2017-11-01T09:09:14.425Z,1013.81
2017-11-01T09:09:54.877Z,1013.82
2017-11-01T09:10:35.337Z,1013.89
2017-11-01T09:11:15.769Z,1013.85
2017-11-01T09:11:56.220Z,1013.89
2017-11-01T09:12:36.684Z,1013.92
2017-11-01T09:13:17.133Z,1013.9
2017-11-01T09:13:57.592Z,1013.81